createdAt,value
2019-03-25T00:01:03.647Z,29.50
2019-03-25T00:03:30.059Z,29.50
2019-03-25T00:05:56.709Z,29.50
2019-03-25T00:08:23.315Z,29.50
2019-03-25T00:10:49.559Z,29.30
2019-03-25T00:13:15.981Z,29.40
2019-03-25T00:15:42.211Z,29.60
2019-03-25T00:18:08.442Z,29.50
2019-03-25T00:20:34.732Z,29.60
2019-03-25T00:23:01.332Z,29.60
2019-03-25T00:25:27.704Z,29.50
2019-03-25T00:27:53.977Z,29.70
2019-03-25T00:30:20.396Z,29.60
2019-03-25T00:32:46.613Z,29.60
2019-03-25T00:35:12.856Z,29.50
2019-03-25T00:37:39.055Z,29.40
2019-03-25T00:40:05.292Z,29.60
2019-03-25T00:42:31.550Z,29.60
2019-03-25T00:44:57.982Z,29.70
2019-03-25T00:47:24.202Z,29.80
2019-03-25T00:49:50.627Z,29.60
2019-03-25T00:52:17.097Z,29.70
2019-03-25T00:54:49.879Z,29.80
2019-03-25T00:57:09.915Z,29.80
2019-03-25T00:59:36.166Z,29.80
2019-03-25T01:02:03.241Z,29.80
2019-03-25T01:04:29.650Z,29.80
2019-03-25T01:06:55.864Z,29.70
2019-03-25T01:09:22.095Z,29.70
2019-03-25T01:11:49.558Z,29.60
2019-03-25T01:14:16.391Z,29.70
2019-03-25T01:16:43.448Z,29.70
2019-03-25T01:19:10.294Z,29.60
2019-03-25T01:21:36.760Z,29.70
2019-03-25T01:24:03.191Z,29.80
2019-03-25T01:26:29.629Z,29.90
2019-03-25T01:28:56.002Z,29.80
2019-03-25T01:31:22.694Z,29.80
2019-03-25T01:33:49.140Z,29.90
2019-03-25T01:36:15.535Z,29.80
2019-03-25T01:38:41.995Z,29.90
2019-03-25T01:41:08.630Z,29.70
2019-03-25T01:43:35.269Z,29.80
2019-03-25T01:46:01.907Z,29.80
2019-03-25T01:48:28.323Z,29.70
2019-03-25T01:50:54.732Z,29.70
2019-03-25T01:53:20.979Z,29.80
2019-03-25T01:55:47.443Z,29.90
2019-03-25T01:58:13.863Z,29.90
2019-03-25T02:00:40.278Z,29.90
2019-03-25T02:03:06.487Z,29.90
2019-03-25T02:05:32.714Z,30.00
2019-03-25T02:07:58.987Z,29.90
2019-03-25T02:10:25.422Z,30.00
2019-03-25T02:12:51.632Z,29.90
2019-03-25T02:15:18.046Z,30.00
2019-03-25T02:17:44.718Z,30.00
2019-03-25T02:20:11.128Z,30.00
2019-03-25T02:22:37.426Z,30.00
2019-03-25T02:25:03.809Z,29.90
2019-03-25T02:27:30.249Z,30.00
2019-03-25T02:29:56.644Z,30.00
2019-03-25T02:32:22.870Z,30.00
2019-03-25T02:34:49.122Z,30.00
2019-03-25T02:37:15.519Z,30.10
2019-03-25T02:39:41.788Z,30.20
2019-03-25T02:42:08.274Z,30.00
2019-03-25T02:44:34.886Z,30.00
2019-03-25T02:47:01.119Z,30.20
2019-03-25T02:49:27.539Z,30.20
2019-03-25T02:51:53.958Z,30.30
2019-03-25T02:54:20.368Z,30.30
2019-03-25T02:56:46.865Z,30.40
2019-03-25T02:59:13.474Z,30.60
2019-03-25T03:01:39.903Z,30.60
2019-03-25T03:04:06.295Z,30.60
2019-03-25T03:06:32.549Z,30.50
2019-03-25T03:08:58.948Z,30.60
2019-03-25T03:11:25.231Z,30.60
2019-03-25T03:13:51.864Z,30.70
2019-03-25T03:16:18.262Z,30.70
2019-03-25T03:18:44.700Z,30.60
2019-03-25T03:21:11.162Z,30.80
2019-03-25T03:23:37.568Z,30.80
2019-03-25T03:26:05.428Z,30.90
2019-03-25T03:28:31.676Z,30.90
2019-03-25T03:30:58.098Z,31.60
2019-03-25T03:33:24.336Z,31.00
2019-03-25T03:35:51.540Z,31.10
2019-03-25T03:38:17.836Z,31.70
2019-03-25T03:40:44.221Z,31.10
2019-03-25T03:43:12.116Z,31.50
2019-03-25T03:45:38.442Z,31.50
2019-03-25T03:48:05.587Z,31.60
2019-03-25T03:50:33.469Z,31.50
2019-03-25T03:52:59.850Z,31.50
2019-03-25T03:55:26.096Z,31.70
2019-03-25T03:57:52.328Z,31.70
2019-03-25T04:00:18.545Z,32.00
2019-03-25T04:02:45.217Z,32.70
2019-03-25T04:05:11.442Z,32.20
2019-03-25T04:07:37.863Z,32.30
2019-03-25T04:10:04.064Z,32.50
2019-03-25T04:12:30.313Z,32.60
2019-03-25T04:14:56.561Z,32.70
2019-03-25T04:17:22.843Z,32.70
2019-03-25T04:19:49.216Z,32.90
2019-03-25T04:22:16.295Z,33.00
2019-03-25T04:24:43.491Z,33.00
2019-03-25T04:27:09.774Z,32.90
2019-03-25T04:29:36.161Z,32.90
2019-03-25T04:32:06.088Z,32.90
2019-03-25T04:34:29.657Z,32.90
2019-03-25T04:36:56.714Z,33.20
2019-03-25T04:39:23.745Z,33.20
2019-03-25T04:41:50.193Z,33.20
2019-03-25T04:44:16.408Z,33.20
2019-03-25T04:46:42.639Z,33.20
2019-03-25T04:49:09.107Z,33.00
2019-03-25T04:51:35.504Z,33.00
2019-03-25T04:54:01.925Z,33.00
2019-03-25T04:56:38.758Z,33.10
2019-03-25T04:58:57.676Z,33.10
2019-03-25T05:01:23.925Z,33.10
2019-03-25T05:03:50.340Z,33.10
2019-03-25T05:06:16.564Z,33.10
2019-03-25T05:08:42.824Z,33.10
2019-03-25T05:11:09.233Z,33.10
2019-03-25T05:13:35.451Z,33.20
2019-03-25T05:16:01.706Z,33.20
2019-03-25T05:18:28.135Z,33.20
2019-03-25T05:20:54.557Z,33.20
2019-03-25T05:23:20.814Z,33.30
2019-03-25T05:25:47.207Z,33.40
2019-03-25T05:28:13.469Z,33.40
2019-03-25T05:30:39.893Z,33.40
2019-03-25T05:33:06.295Z,33.40
2019-03-25T05:35:32.733Z,33.30
2019-03-25T05:37:58.953Z,33.30
2019-03-25T05:40:25.225Z,33.40
2019-03-25T05:42:51.619Z,33.40
2019-03-25T05:45:18.091Z,33.40
2019-03-25T05:47:44.504Z,33.30
2019-03-25T05:50:10.719Z,33.30
2019-03-25T05:52:37.160Z,33.40
2019-03-25T05:55:03.617Z,33.50
2019-03-25T05:57:30.015Z,33.60
2019-03-25T05:59:56.282Z,33.50
2019-03-25T06:02:22.683Z,33.50
2019-03-25T06:04:48.893Z,33.50
2019-03-25T06:07:15.116Z,33.50
2019-03-25T06:09:41.365Z,33.50
2019-03-25T06:12:07.605Z,33.40
2019-03-25T06:14:34.266Z,33.40
2019-03-25T06:17:00.691Z,33.30
2019-03-25T06:19:27.114Z,33.40
2019-03-25T06:21:53.532Z,33.30
2019-03-25T06:24:19.744Z,33.50
2019-03-25T06:26:45.981Z,33.50
2019-03-25T06:29:13.839Z,33.50
2019-03-25T06:31:40.087Z,33.50
2019-03-25T06:34:06.546Z,33.50
2019-03-25T06:36:33.218Z,33.50
2019-03-25T06:38:59.588Z,33.50
2019-03-25T06:41:25.827Z,33.60
2019-03-25T06:43:52.901Z,33.90
2019-03-25T06:46:19.339Z,33.90
2019-03-25T06:48:45.721Z,34.00
2019-03-25T06:51:11.993Z,34.00
2019-03-25T06:53:38.412Z,34.10
2019-03-25T06:56:04.821Z,34.00
2019-03-25T06:58:31.045Z,34.10
2019-03-25T07:00:57.284Z,34.20
2019-03-25T07:03:23.510Z,34.30
2019-03-25T07:05:49.704Z,34.40
2019-03-25T07:08:15.994Z,34.30
2019-03-25T07:10:42.407Z,34.30
2019-03-25T07:13:08.635Z,34.20
2019-03-25T07:15:34.848Z,34.30
2019-03-25T07:18:01.093Z,34.30
2019-03-25T07:20:27.556Z,35.00
2019-03-25T07:22:53.948Z,34.40
2019-03-25T07:25:20.210Z,34.50
2019-03-25T07:27:46.614Z,34.50
2019-03-25T07:30:12.835Z,34.60
2019-03-25T07:32:39.902Z,34.80
2019-03-25T07:35:06.317Z,34.70
2019-03-25T07:37:32.543Z,34.80
2019-03-25T07:39:58.811Z,35.00
2019-03-25T07:42:25.233Z,35.00
2019-03-25T07:44:51.651Z,35.00
2019-03-25T07:47:18.721Z,35.00
2019-03-25T07:49:45.164Z,35.00
2019-03-25T07:52:11.542Z,35.00
2019-03-25T07:54:37.881Z,35.10
2019-03-25T07:57:04.275Z,35.10
2019-03-25T07:59:30.639Z,35.10
2019-03-25T08:01:56.885Z,35.10
2019-03-25T08:04:23.093Z,35.20
2019-03-25T08:06:49.341Z,35.30
2019-03-25T08:09:15.538Z,35.20
2019-03-25T08:11:41.777Z,35.20
2019-03-25T08:14:08.009Z,35.10
2019-03-25T08:16:34.189Z,35.10
2019-03-25T08:19:00.389Z,35.10
2019-03-25T08:21:27.349Z,35.30
2019-03-25T08:23:53.548Z,35.20
2019-03-25T08:26:19.730Z,35.30
2019-03-25T08:28:45.926Z,35.20
2019-03-25T08:31:12.874Z,35.30
2019-03-25T08:33:39.086Z,35.20
2019-03-25T08:36:06.045Z,35.10
2019-03-25T08:38:33.162Z,35.10
2019-03-25T08:40:59.397Z,35.10
2019-03-25T08:43:25.572Z,35.10
2019-03-25T08:45:51.912Z,35.10
2019-03-25T08:48:18.144Z,35.10
2019-03-25T08:50:44.353Z,34.90
2019-03-25T08:53:10.539Z,34.90
2019-03-25T08:55:36.747Z,35.00
2019-03-25T08:58:11.447Z,35.00
2019-03-25T09:00:29.198Z,35.10
2019-03-25T09:02:55.489Z,35.20
2019-03-25T09:05:21.715Z,35.30
2019-03-25T09:07:48.159Z,35.50
2019-03-25T09:10:14.582Z,35.60
2019-03-25T09:12:40.800Z,35.50
2019-03-25T09:15:07.999Z,35.50
2019-03-25T09:17:34.270Z,35.40
2019-03-25T09:20:00.523Z,35.50
2019-03-25T09:22:26.748Z,35.40
2019-03-25T09:24:53.051Z,35.60
2019-03-25T09:27:19.232Z,35.60
2019-03-25T09:29:45.456Z,35.80
2019-03-25T09:32:11.672Z,35.80
2019-03-25T09:34:37.875Z,35.70
2019-03-25T09:37:04.130Z,35.80
2019-03-25T09:39:30.563Z,35.90
2019-03-25T09:41:56.763Z,36.00
2019-03-25T09:44:23.009Z,36.00
2019-03-25T09:46:49.243Z,36.00
2019-03-25T09:49:15.447Z,36.00
2019-03-25T09:51:41.694Z,36.10
2019-03-25T09:54:07.952Z,36.00
2019-03-25T09:56:34.149Z,36.10
2019-03-25T09:59:00.343Z,36.20
2019-03-25T10:01:26.600Z,36.20
2019-03-25T10:03:52.795Z,36.20
2019-03-25T10:06:20.520Z,36.30
2019-03-25T10:08:46.932Z,36.20
2019-03-25T10:11:13.364Z,36.20
2019-03-25T10:13:39.606Z,36.20
2019-03-25T10:16:05.862Z,36.30
2019-03-25T10:18:32.272Z,36.30
2019-03-25T10:20:58.516Z,36.30
2019-03-25T10:23:24.927Z,36.40
2019-03-25T10:25:51.161Z,36.40
2019-03-25T10:28:17.390Z,36.30
2019-03-25T10:30:43.616Z,36.40
2019-03-25T10:33:10.613Z,36.30
2019-03-25T10:35:36.826Z,36.20
2019-03-25T10:38:03.103Z,36.30
2019-03-25T10:40:29.323Z,36.30
2019-03-25T10:42:55.562Z,36.30
2019-03-25T10:45:21.822Z,36.30
2019-03-25T10:47:48.033Z,36.20
2019-03-25T10:50:14.228Z,36.20
2019-03-25T10:52:40.472Z,36.70
2019-03-25T10:55:07.868Z,36.00
2019-03-25T10:57:32.980Z,36.10
2019-03-25T10:59:59.240Z,36.10
2019-03-25T11:02:25.399Z,36.00
2019-03-25T11:04:51.628Z,36.00
2019-03-25T11:07:17.959Z,35.70
2019-03-25T11:09:44.085Z,35.90
2019-03-25T11:12:10.284Z,35.90
2019-03-25T11:14:36.531Z,35.70
2019-03-25T11:17:02.759Z,35.70
2019-03-25T11:19:28.942Z,35.50
2019-03-25T11:21:55.145Z,35.90
2019-03-25T11:24:21.402Z,35.80
2019-03-25T11:26:47.692Z,35.90
2019-03-25T11:29:13.895Z,35.90
2019-03-25T11:31:40.118Z,35.80
2019-03-25T11:34:06.304Z,35.70
2019-03-25T11:36:32.550Z,35.70
2019-03-25T11:38:58.767Z,35.70
2019-03-25T11:41:24.985Z,35.60
2019-03-25T11:43:51.203Z,35.70
2019-03-25T11:46:17.439Z,35.70
2019-03-25T11:48:43.632Z,35.60
2019-03-25T11:51:09.837Z,35.50
2019-03-25T11:53:36.999Z,35.60
2019-03-25T11:56:03.278Z,35.60
2019-03-25T11:58:29.491Z,35.50
2019-03-25T12:00:56.096Z,35.50
2019-03-25T12:03:22.533Z,35.40
2019-03-25T12:05:48.718Z,35.30
2019-03-25T12:08:16.627Z,35.30
2019-03-25T12:10:42.844Z,35.30
2019-03-25T12:13:09.284Z,35.50
2019-03-25T12:15:35.504Z,35.30
2019-03-25T12:18:01.724Z,35.30
2019-03-25T12:20:27.936Z,35.00
2019-03-25T12:22:55.670Z,35.30
2019-03-25T12:25:21.879Z,35.30
2019-03-25T12:27:48.298Z,35.50
2019-03-25T12:30:14.526Z,35.60
2019-03-25T12:32:40.745Z,35.60
2019-03-25T12:35:07.747Z,35.60
2019-03-25T12:37:35.541Z,35.50
2019-03-25T12:40:02.506Z,35.40
2019-03-25T12:42:28.718Z,35.40
2019-03-25T12:44:54.916Z,35.20
2019-03-25T12:47:21.160Z,35.30
2019-03-25T12:49:47.381Z,35.30
2019-03-25T12:52:14.036Z,35.40
2019-03-25T12:54:40.233Z,35.30
2019-03-25T12:57:06.444Z,35.20
2019-03-25T12:59:40.859Z,35.20
2019-03-25T13:01:58.973Z,35.00
2019-03-25T13:04:25.194Z,35.10
2019-03-25T13:06:51.428Z,35.80
2019-03-25T13:09:17.654Z,35.20
2019-03-25T13:11:43.896Z,35.20
2019-03-25T13:14:10.136Z,35.20
2019-03-25T13:16:36.344Z,35.30
2019-03-25T13:19:02.532Z,35.40
2019-03-25T13:21:30.259Z,35.80
2019-03-25T13:23:56.472Z,35.80
2019-03-25T13:26:22.668Z,35.70
2019-03-25T13:28:48.871Z,35.80
2019-03-25T13:31:15.071Z,35.80
2019-03-25T13:33:41.382Z,35.80
2019-03-25T13:36:09.222Z,36.00
2019-03-25T13:38:35.423Z,35.90
2019-03-25T13:41:01.604Z,35.90
2019-03-25T13:43:27.811Z,35.90
2019-03-25T13:46:04.796Z,35.90
2019-03-25T13:48:20.381Z,35.90
2019-03-25T13:50:46.609Z,36.00
2019-03-25T13:53:12.848Z,36.10
2019-03-25T13:55:39.051Z,36.10
2019-03-25T13:58:05.291Z,36.20
2019-03-25T14:00:31.494Z,36.30
2019-03-25T14:02:57.707Z,36.30
2019-03-25T14:05:23.897Z,36.40
2019-03-25T14:07:50.092Z,36.40
2019-03-25T14:10:17.071Z,36.50
2019-03-25T14:12:43.311Z,36.40
2019-03-25T14:15:09.679Z,36.50
2019-03-25T14:17:35.856Z,36.60
2019-03-25T14:20:02.048Z,36.50
2019-03-25T14:22:29.010Z,36.50
2019-03-25T14:24:55.192Z,36.50
2019-03-25T14:27:21.374Z,36.50
2019-03-25T14:29:47.592Z,36.50
2019-03-25T14:32:14.571Z,36.70
2019-03-25T14:34:45.027Z,36.60
2019-03-25T14:37:07.000Z,36.70
2019-03-25T14:39:33.220Z,36.70
2019-03-25T14:41:59.404Z,36.60
2019-03-25T14:44:26.400Z,37.20
2019-03-25T14:46:52.607Z,36.80
2019-03-25T14:49:18.865Z,36.80
2019-03-25T14:51:45.200Z,36.80
2019-03-25T14:54:11.619Z,36.60
2019-03-25T14:56:37.849Z,36.60
2019-03-25T14:59:04.280Z,36.50
2019-03-25T15:01:30.714Z,36.60
2019-03-25T15:03:56.958Z,36.50
2019-03-25T15:06:23.381Z,36.40
2019-03-25T15:08:49.601Z,36.40
2019-03-25T15:11:15.820Z,36.30
2019-03-25T15:13:42.027Z,36.30
2019-03-25T15:16:08.219Z,36.30
2019-03-25T15:18:34.438Z,36.20
2019-03-25T15:21:00.694Z,36.20
2019-03-25T15:23:26.872Z,36.10
2019-03-25T15:25:53.059Z,36.10
2019-03-25T15:28:19.637Z,36.10
2019-03-25T15:30:45.890Z,36.10
2019-03-25T15:33:12.118Z,36.20
2019-03-25T15:35:38.323Z,36.10
2019-03-25T15:38:04.543Z,36.10
2019-03-25T15:40:30.887Z,36.10
2019-03-25T15:42:57.858Z,36.20
2019-03-25T15:45:24.041Z,36.20
2019-03-25T15:47:50.281Z,36.20
2019-03-25T15:50:16.526Z,36.10
2019-03-25T15:52:42.738Z,36.10
2019-03-25T15:55:08.966Z,36.20
2019-03-25T15:57:35.182Z,36.20
2019-03-25T16:00:01.629Z,36.10
2019-03-25T16:02:27.857Z,36.20
2019-03-25T16:04:54.068Z,36.30
2019-03-25T16:07:20.256Z,36.30
2019-03-25T16:09:46.499Z,36.80
2019-03-25T16:12:12.699Z,36.30
2019-03-25T16:14:38.943Z,36.20
2019-03-25T16:17:05.197Z,36.20
2019-03-25T16:19:32.167Z,36.30
2019-03-25T16:21:59.149Z,36.30
2019-03-25T16:24:25.346Z,36.30
2019-03-25T16:26:51.616Z,36.30
2019-03-25T16:29:18.135Z,36.40
2019-03-25T16:31:44.241Z,36.30
2019-03-25T16:34:10.482Z,36.30
2019-03-25T16:36:36.683Z,36.30
2019-03-25T16:39:02.877Z,36.40
2019-03-25T16:41:29.080Z,36.40
2019-03-25T16:43:55.342Z,36.30
2019-03-25T16:46:21.551Z,36.20
2019-03-25T16:48:47.748Z,36.20
2019-03-25T16:51:13.957Z,36.20
2019-03-25T16:53:40.947Z,36.20
2019-03-25T16:56:07.160Z,36.20
2019-03-25T16:58:33.379Z,36.20
2019-03-25T17:01:09.471Z,36.20
2019-03-25T17:03:26.026Z,36.30
2019-03-25T17:05:52.342Z,36.20
2019-03-25T17:08:19.506Z,36.20
2019-03-25T17:10:46.142Z,36.10
2019-03-25T17:13:12.381Z,36.10
2019-03-25T17:15:38.657Z,36.20
2019-03-25T17:18:04.876Z,36.00
2019-03-25T17:20:31.260Z,36.10
2019-03-25T17:22:57.692Z,36.00
2019-03-25T17:25:24.087Z,36.00
2019-03-25T17:27:50.318Z,35.90
2019-03-25T17:30:16.556Z,36.00
2019-03-25T17:32:43.637Z,36.00
2019-03-25T17:35:10.029Z,36.00
2019-03-25T17:37:36.480Z,35.70
2019-03-25T17:40:02.880Z,36.00
2019-03-25T17:42:29.137Z,36.00
2019-03-25T17:44:55.554Z,36.10
2019-03-25T17:47:21.815Z,36.00
2019-03-25T17:49:48.219Z,35.90
2019-03-25T17:52:14.473Z,35.90
2019-03-25T17:54:40.874Z,35.90
2019-03-25T17:57:07.115Z,35.90
2019-03-25T17:59:33.556Z,36.00
2019-03-25T18:01:59.983Z,35.90
2019-03-25T18:04:26.448Z,35.90
2019-03-25T18:06:52.848Z,35.90
2019-03-25T18:09:19.285Z,35.90
2019-03-25T18:11:46.564Z,35.90
2019-03-25T18:14:12.799Z,35.80
2019-03-25T18:16:39.205Z,35.90
2019-03-25T18:19:05.627Z,35.80
2019-03-25T18:21:31.907Z,35.80
2019-03-25T18:23:58.538Z,35.80
2019-03-25T18:26:24.908Z,35.70
2019-03-25T18:28:51.359Z,35.80
2019-03-25T18:31:17.824Z,35.70
2019-03-25T18:33:44.471Z,35.70
2019-03-25T18:36:10.866Z,35.80
2019-03-25T18:38:37.089Z,35.80
2019-03-25T18:41:03.557Z,35.80
2019-03-25T18:43:29.952Z,35.70
2019-03-25T18:45:56.233Z,35.70
2019-03-25T18:48:22.621Z,35.70
2019-03-25T18:50:49.093Z,35.70
2019-03-25T18:53:15.516Z,35.80
2019-03-25T18:55:41.935Z,35.70
2019-03-25T18:58:08.356Z,35.70
2019-03-25T19:00:34.578Z,35.60
2019-03-25T19:03:01.074Z,35.80
2019-03-25T19:05:27.462Z,35.70
2019-03-25T19:07:53.884Z,35.80
2019-03-25T19:10:20.109Z,35.80
2019-03-25T19:12:46.583Z,35.80
2019-03-25T19:15:12.978Z,35.80
2019-03-25T19:17:39.404Z,35.80
2019-03-25T19:20:05.905Z,35.80
2019-03-25T19:22:32.265Z,35.80
2019-03-25T19:24:58.500Z,35.80
2019-03-25T19:27:26.229Z,35.70
2019-03-25T19:29:52.644Z,35.80
2019-03-25T19:32:19.054Z,35.80
2019-03-25T19:34:45.513Z,35.70
2019-03-25T19:37:11.921Z,35.70
2019-03-25T19:39:38.350Z,35.70
2019-03-25T19:42:04.776Z,35.60
2019-03-25T19:44:31.201Z,35.70
2019-03-25T19:46:57.661Z,35.70
2019-03-25T19:49:24.129Z,35.70
2019-03-25T19:51:50.500Z,35.80
2019-03-25T19:54:16.762Z,36.40
2019-03-25T19:56:43.194Z,35.80
2019-03-25T19:59:09.613Z,35.80
2019-03-25T20:01:36.056Z,35.70
2019-03-25T20:04:02.462Z,35.80
2019-03-25T20:06:28.909Z,35.80
2019-03-25T20:08:55.562Z,35.70
2019-03-25T20:11:21.956Z,35.70
2019-03-25T20:13:48.226Z,35.70
2019-03-25T20:16:14.640Z,35.70
2019-03-25T20:18:41.124Z,35.70
2019-03-25T20:21:07.488Z,35.70
2019-03-25T20:23:34.165Z,35.70
2019-03-25T20:26:00.539Z,35.70
2019-03-25T20:28:26.806Z,35.70
2019-03-25T20:30:53.221Z,35.70
2019-03-25T20:33:19.708Z,35.70
2019-03-25T20:35:46.332Z,35.70
2019-03-25T20:38:12.737Z,36.30
2019-03-25T20:40:39.194Z,35.70
2019-03-25T20:43:05.848Z,35.70
2019-03-25T20:45:32.214Z,35.70
2019-03-25T20:47:58.490Z,35.60
2019-03-25T20:50:24.887Z,35.60
2019-03-25T20:52:51.124Z,35.60
2019-03-25T20:55:17.366Z,35.50
2019-03-25T20:57:43.591Z,35.60
2019-03-25T21:00:10.031Z,35.50
2019-03-25T21:02:45.049Z,35.50
2019-03-25T21:05:02.717Z,35.50
2019-03-25T21:07:29.347Z,35.50
2019-03-25T21:09:56.625Z,35.50
2019-03-25T21:12:23.078Z,35.40
2019-03-25T21:14:49.669Z,35.40
2019-03-25T21:17:16.088Z,35.30
2019-03-25T21:19:42.531Z,35.30
2019-03-25T21:22:08.968Z,35.40
2019-03-25T21:24:35.371Z,35.40
2019-03-25T21:27:01.596Z,35.30
2019-03-25T21:29:27.848Z,35.40
2019-03-25T21:31:54.279Z,35.40
2019-03-25T21:34:20.755Z,35.40
2019-03-25T21:36:47.137Z,35.40
2019-03-25T21:39:14.175Z,35.20
2019-03-25T21:41:42.391Z,35.30
2019-03-25T21:44:08.674Z,35.30
2019-03-25T21:46:34.981Z,35.30
2019-03-25T21:49:01.352Z,35.30
2019-03-25T21:51:27.798Z,35.30
2019-03-25T21:53:54.381Z,35.30
2019-03-25T21:56:20.782Z,35.30
2019-03-25T21:58:47.064Z,35.20
2019-03-25T22:01:14.994Z,35.30
2019-03-25T22:03:41.611Z,35.20
2019-03-25T22:06:08.007Z,35.30
2019-03-25T22:08:34.991Z,35.30
2019-03-25T22:11:01.280Z,35.30
2019-03-25T22:13:27.527Z,35.30
2019-03-25T22:15:53.771Z,35.20
2019-03-25T22:18:20.184Z,35.20
2019-03-25T22:20:46.641Z,35.10
2019-03-25T22:23:13.020Z,35.20
2019-03-25T22:25:39.286Z,35.10
2019-03-25T22:28:05.495Z,35.10
2019-03-25T22:30:31.720Z,35.10
2019-03-25T22:32:57.972Z,35.10
2019-03-25T22:35:24.426Z,35.20
2019-03-25T22:37:50.856Z,35.10
2019-03-25T22:40:17.261Z,35.20
2019-03-25T22:42:43.517Z,35.10
2019-03-25T22:45:10.156Z,35.20
2019-03-25T22:47:36.607Z,35.20
2019-03-25T22:50:02.990Z,35.10
2019-03-25T22:52:29.252Z,35.00
2019-03-25T22:54:55.654Z,35.10
2019-03-25T22:57:22.086Z,35.10
2019-03-25T22:59:48.310Z,35.00
2019-03-25T23:02:15.366Z,35.10
2019-03-25T23:04:42.430Z,35.10
2019-03-25T23:07:08.811Z,35.10
2019-03-25T23:09:35.307Z,35.10
2019-03-25T23:12:01.741Z,35.20
2019-03-25T23:14:28.163Z,35.10
2019-03-25T23:16:54.593Z,35.30
2019-03-25T23:19:21.039Z,35.30
2019-03-25T23:21:47.437Z,35.30
2019-03-25T23:24:16.775Z,35.20
2019-03-25T23:26:43.208Z,35.20
2019-03-25T23:29:09.640Z,35.30
2019-03-25T23:31:36.044Z,35.30
2019-03-25T23:34:03.120Z,35.30
2019-03-25T23:36:29.567Z,35.30
2019-03-25T23:38:55.931Z,35.30
2019-03-25T23:41:22.179Z,35.30
2019-03-25T23:43:48.448Z,35.30
2019-03-25T23:46:14.882Z,35.30
2019-03-25T23:48:41.515Z,35.40
2019-03-25T23:51:07.910Z,35.30
2019-03-25T23:53:35.760Z,35.50
2019-03-25T23:56:02.044Z,35.40
2019-03-25T23:58:28.432Z,35.40
